Herne, Belgium
Current Conditions -  °F | °C
As of 3:25 AM on Sunday 21 Dec 2014 (Local Time) from EBCV Reporting Station
Scattered Clouds Scattered Clouds  
Wind Chill: 32°   Ceiling: Unl
Heat Index: 37°   Visibility: 6mi
Dew Point: 36°   Wind: 7mph
Humidity: 93%   Direction: 230°SW
Pressure: 30.45"   Gusts: NA
Location:  50.72°N, 4.03°E
Report Text: EBCV 210225Z AUTO 23006KT 9999 FEW025/// SCT190/// 03/02 Q1031 BLU
Loading
Personal Weather Stations






























Interactive Weather Map New forecast layout! Learn more

10-Day Weather Forecast

Advertisements
Track Severe Weather on mobile